Madeline, California
Current Conditions -  °F | °C
As of 9:55 AM on Friday 24 Oct 2014 (Local Time) from KAAT Reporting Station
Clear Clear  
Wind Chill: 54°   Ceiling: Unl
Heat Index: 54°   Visibility: 10mi
Dew Point: 43°   Wind: 0mph
Humidity: 66%   Direction: NA
Pressure: 30.05"   Gusts: NA
Location:  41.05°N, 120.48°W
Report Text: KAAT 241655Z AUTO 00000KT 10SM CLR 12/06 A3005 RMK AO2 SLP159 T01220061
Loading
Personal Weather Stations






























Interactive Weather Map
Tropical Storm Tracking
New forecast layout! Learn more

10-Day Weather Forecast

Advertisements
Track Severe Weather on mobile